sensor_id;sensor_type;location;lat;lon;timestamp;P1;durP1;ratioP1;P2;durP2;ratioP2
68577;SDS011;61668;45.388;11.784;2023-01-25T00:02:26;19.00;;;10.80;;
68577;SDS011;61668;45.388;11.784;2023-01-25T00:04:52;18.60;;;9.40;;
68577;SDS011;61668;45.388;11.784;2023-01-25T00:07:18;15.60;;;8.90;;
68577;SDS011;61668;45.388;11.784;2023-01-25T00:09:44;17.70;;;9.00;;
68577;SDS011;61668;45.388;11.784;2023-01-25T00:12:12;19.80;;;10.80;;
68577;SDS011;61668;45.388;11.784;2023-01-25T00:14:41;19.70;;;11.00;;
68577;SDS011;61668;45.388;11.784;2023-01-25T00:17:10;20.30;;;11.20;;
68577;SDS011;61668;45.388;11.784;2023-01-25T00:19:36;20.10;;;10.90;;
68577;SDS011;61668;45.388;11.784;2023-01-25T00:22:08;20.30;;;10.80;;
68577;SDS011;61668;45.388;11.784;2023-01-25T00:24:34;18.40;;;10.40;;
68577;SDS011;61668;45.388;11.784;2023-01-25T00:27:01;20.00;;;9.70;;
68577;SDS011;61668;45.388;11.784;2023-01-25T00:29:27;19.50;;;9.60;;
68577;SDS011;61668;45.388;11.784;2023-01-25T00:36:55;19.70;;;10.50;;
68577;SDS011;61668;45.388;11.784;2023-01-25T00:39:28;19.00;;;9.80;;
68577;SDS011;61668;45.388;11.784;2023-01-25T00:42:00;17.00;;;8.70;;
68577;SDS011;61668;45.388;11.784;2023-01-25T00:44:29;19.80;;;10.40;;
68577;SDS011;61668;45.388;11.784;2023-01-25T00:46:54;19.30;;;9.70;;
68577;SDS011;61668;45.388;11.784;2023-01-25T00:49:25;16.50;;;8.70;;
68577;SDS011;61668;45.388;11.784;2023-01-25T00:51:56;16.90;;;9.60;;
68577;SDS011;61668;45.388;11.784;2023-01-25T00:54:25;19.30;;;9.80;;
68577;SDS011;61668;45.388;11.784;2023-01-25T00:56:52;18.80;;;10.50;;
68577;SDS011;61668;45.388;11.784;2023-01-25T00:59:21;18.40;;;9.40;;
68577;SDS011;61668;45.388;11.784;2023-01-25T01:01:48;19.80;;;9.80;;
68577;SDS011;61668;45.388;11.784;2023-01-25T01:04:16;17.40;;;8.60;;
68577;SDS011;61668;45.388;11.784;2023-01-25T01:06:42;15.80;;;9.20;;
68577;SDS011;61668;45.388;11.784;2023-01-25T01:09:14;20.60;;;11.00;;
68577;SDS011;61668;45.388;11.784;2023-01-25T01:11:43;16.40;;;10.20;;
68577;SDS011;61668;45.388;11.784;2023-01-25T01:14:09;19.30;;;11.40;;
68577;SDS011;61668;45.388;11.784;2023-01-25T01:16:35;19.50;;;10.50;;
68577;SDS011;61668;45.388;11.784;2023-01-25T01:19:02;18.00;;;9.60;;
68577;SDS011;61668;45.388;11.784;2023-01-25T01:21:28;19.40;;;10.60;;
68577;SDS011;61668;45.388;11.784;2023-01-25T01:23:54;19.10;;;10.10;;
68577;SDS011;61668;45.388;11.784;2023-01-25T01:26:20;17.40;;;10.00;;
68577;SDS011;61668;45.388;11.784;2023-01-25T01:28:49;18.50;;;10.40;;
68577;SDS011;61668;45.388;11.784;2023-01-25T01:31:17;18.60;;;10.50;;
68577;SDS011;61668;45.388;11.784;2023-01-25T01:33:56;19.70;;;10.30;;
68577;SDS011;61668;45.388;11.784;2023-01-25T01:36:29;19.10;;;10.80;;
68577;SDS011;61668;45.388;11.784;2023-01-25T01:38:57;21.20;;;10.60;;
68577;SDS011;61668;45.388;11.784;2023-01-25T01:41:24;20.40;;;11.20;;
68577;SDS011;61668;45.388;11.784;2023-01-25T01:43:50;18.70;;;9.50;;
68577;SDS011;61668;45.388;11.784;2023-01-25T01:59:48;21.30;;;10.70;;
68577;SDS011;61668;45.388;11.784;2023-01-25T02:02:16;20.20;;;10.40;;
68577;SDS011;61668;45.388;11.784;2023-01-25T02:04:46;17.90;;;9.70;;
68577;SDS011;61668;45.388;11.784;2023-01-25T02:07:20;19.20;;;10.50;;
68577;SDS011;61668;45.388;11.784;2023-01-25T02:09:51;16.80;;;8.30;;
68577;SDS011;61668;45.388;11.784;2023-01-25T02:12:23;18.10;;;9.00;;
68577;SDS011;61668;45.388;11.784;2023-01-25T02:14:51;18.10;;;9.60;;
68577;SDS011;61668;45.388;11.784;2023-01-25T02:17:32;17.70;;;9.10;;
68577;SDS011;61668;45.388;11.784;2023-01-25T02:20:08;17.20;;;8.30;;
68577;SDS011;61668;45.388;11.784;2023-01-25T02:25:41;16.30;;;8.80;;
68577;SDS011;61668;45.388;11.784;2023-01-25T02:28:23;15.70;;;7.90;;
68577;SDS011;61668;45.388;11.784;2023-01-25T02:31:11;17.00;;;8.40;;
68577;SDS011;61668;45.388;11.784;2023-01-25T02:33:37;16.10;;;8.20;;
68577;SDS011;61668;45.388;11.784;2023-01-25T02:38:54;14.40;;;6.30;;
68577;SDS011;61668;45.388;11.784;2023-01-25T02:41:33;15.40;;;7.40;;
68577;SDS011;61668;45.388;11.784;2023-01-25T02:44:03;14.70;;;6.90;;
68577;SDS011;61668;45.388;11.784;2023-01-25T02:46:34;15.10;;;8.10;;
68577;SDS011;61668;45.388;11.784;2023-01-25T02:49:05;17.40;;;8.50;;
68577;SDS011;61668;45.388;11.784;2023-01-25T02:51:38;14.20;;;7.80;;
68577;SDS011;61668;45.388;11.784;2023-01-25T02:54:10;17.00;;;8.60;;
68577;SDS011;61668;45.388;11.784;2023-01-25T02:56:37;15.80;;;6.90;;
68577;SDS011;61668;45.388;11.784;2023-01-25T02:59:08;17.70;;;8.00;;
68577;SDS011;61668;45.388;11.784;2023-01-25T03:01:37;16.10;;;6.50;;
68577;SDS011;61668;45.388;11.784;2023-01-25T03:04:06;16.40;;;7.70;;
68577;SDS011;61668;45.388;11.784;2023-01-25T03:06:34;13.00;;;6.40;;
68577;SDS011;61668;45.388;11.784;2023-01-25T03:09:02;16.10;;;7.10;;
68577;SDS011;61668;45.388;11.784;2023-01-25T03:11:29;13.70;;;6.60;;
68577;SDS011;61668;45.388;11.784;2023-01-25T03:13:55;17.00;;;7.90;;
68577;SDS011;61668;45.388;11.784;2023-01-25T03:16:21;13.50;;;7.50;;
68577;SDS011;61668;45.388;11.784;2023-01-25T03:18:47;15.30;;;7.20;;
68577;SDS011;61668;45.388;11.784;2023-01-25T03:21:16;14.00;;;6.80;;
68577;SDS011;61668;45.388;11.784;2023-01-25T03:23:56;13.90;;;6.80;;
68577;SDS011;61668;45.388;11.784;2023-01-25T03:26:24;14.30;;;6.00;;
68577;SDS011;61668;45.388;11.784;2023-01-25T03:28:54;13.80;;;6.10;;
68577;SDS011;61668;45.388;11.784;2023-01-25T03:31:25;14.50;;;6.20;;
68577;SDS011;61668;45.388;11.784;2023-01-25T03:33:51;13.50;;;7.30;;
68577;SDS011;61668;45.388;11.784;2023-01-25T03:36:17;14.40;;;6.60;;
68577;SDS011;61668;45.388;11.784;2023-01-25T03:38:46;14.60;;;6.90;;
68577;SDS011;61668;45.388;11.784;2023-01-25T03:41:15;13.00;;;6.50;;
68577;SDS011;61668;45.388;11.784;2023-01-25T03:43:46;14.20;;;6.50;;
68577;SDS011;61668;45.388;11.784;2023-01-25T03:46:12;14.90;;;6.90;;
68577;SDS011;61668;45.388;11.784;2023-01-25T03:48:38;12.50;;;6.00;;
68577;SDS011;61668;45.388;11.784;2023-01-25T03:51:08;15.30;;;5.80;;
68577;SDS011;61668;45.388;11.784;2023-01-25T03:53:34;15.30;;;6.50;;
68577;SDS011;61668;45.388;11.784;2023-01-25T03:56:10;13.00;;;6.60;;
68577;SDS011;61668;45.388;11.784;2023-01-25T03:58:49;13.60;;;6.50;;
68577;SDS011;61668;45.388;11.784;2023-01-25T04:01:15;15.90;;;7.00;;
68577;SDS011;61668;45.388;11.784;2023-01-25T04:03:41;15.80;;;7.20;;
68577;SDS011;61668;45.388;11.784;2023-01-25T04:06:07;15.00;;;6.40;;
68577;SDS011;61668;45.388;11.784;2023-01-25T04:08:33;13.90;;;6.70;;
68577;SDS011;61668;45.388;11.784;2023-01-25T04:11:05;14.50;;;6.30;;
68577;SDS011;61668;45.388;11.784;2023-01-25T04:13:33;15.20;;;7.20;;
68577;SDS011;61668;45.388;11.784;2023-01-25T04:16:06;17.20;;;7.70;;
68577;SDS011;61668;45.388;11.784;2023-01-25T04:18:33;13.90;;;6.90;;
68577;SDS011;61668;45.388;11.784;2023-01-25T04:20:59;15.30;;;7.10;;
68577;SDS011;61668;45.388;11.784;2023-01-25T04:23:25;14.60;;;6.40;;
68577;SDS011;61668;45.388;11.784;2023-01-25T04:25:53;13.70;;;6.40;;
68577;SDS011;61668;45.388;11.784;2023-01-25T04:28:30;14.70;;;6.30;;
68577;SDS011;61668;45.388;11.784;2023-01-25T04:30:57;13.70;;;5.90;;
68577;SDS011;61668;45.388;11.784;2023-01-25T04:33:24;15.50;;;7.00;;
68577;SDS011;61668;45.388;11.784;2023-01-25T04:35:50;14.10;;;6.70;;
68577;SDS011;61668;45.388;11.784;2023-01-25T04:38:16;15.50;;;6.40;;
68577;SDS011;61668;45.388;11.784;2023-01-25T04:40:42;14.10;;;6.90;;
68577;SDS011;61668;45.388;11.784;2023-01-25T04:43:11;14.80;;;5.60;;
68577;SDS011;61668;45.388;11.784;2023-01-25T04:45:37;13.50;;;5.70;;
68577;SDS011;61668;45.388;11.784;2023-01-25T04:48:05;14.20;;;6.30;;
68577;SDS011;61668;45.388;11.784;2023-01-25T04:50:35;14.70;;;6.30;;
68577;SDS011;61668;45.388;11.784;2023-01-25T04:53:02;13.40;;;6.20;;
68577;SDS011;61668;45.388;11.784;2023-01-25T04:55:28;15.70;;;6.70;;
68577;SDS011;61668;45.388;11.784;2023-01-25T04:57:54;15.10;;;6.00;;
68577;SDS011;61668;45.388;11.784;2023-01-25T05:00:20;13.70;;;5.50;;
68577;SDS011;61668;45.388;11.784;2023-01-25T05:02:46;14.20;;;5.70;;
68577;SDS011;61668;45.388;11.784;2023-01-25T05:05:12;12.80;;;4.80;;
68577;SDS011;61668;45.388;11.784;2023-01-25T05:07:38;15.00;;;6.20;;
68577;SDS011;61668;45.388;11.784;2023-01-25T05:10:05;16.30;;;5.90;;
68577;SDS011;61668;45.388;11.784;2023-01-25T05:12:32;12.40;;;5.00;;
68577;SDS011;61668;45.388;11.784;2023-01-25T05:14:58;13.90;;;4.80;;
68577;SDS011;61668;45.388;11.784;2023-01-25T05:17:23;14.30;;;5.20;;
68577;SDS011;61668;45.388;11.784;2023-01-25T05:19:49;13.90;;;5.10;;
68577;SDS011;61668;45.388;11.784;2023-01-25T05:22:16;13.80;;;5.30;;
68577;SDS011;61668;45.388;11.784;2023-01-25T05:24:45;13.20;;;4.90;;
68577;SDS011;61668;45.388;11.784;2023-01-25T05:27:14;12.50;;;4.30;;
68577;SDS011;61668;45.388;11.784;2023-01-25T05:29:43;12.40;;;5.20;;
68577;SDS011;61668;45.388;11.784;2023-01-25T05:32:15;13.50;;;5.30;;
68577;SDS011;61668;45.388;11.784;2023-01-25T05:34:42;14.00;;;4.60;;
68577;SDS011;61668;45.388;11.784;2023-01-25T05:37:11;13.60;;;5.40;;
68577;SDS011;61668;45.388;11.784;2023-01-25T05:39:38;14.60;;;4.00;;
68577;SDS011;61668;45.388;11.784;2023-01-25T05:42:10;11.90;;;5.00;;
68577;SDS011;61668;45.388;11.784;2023-01-25T05:44:38;14.20;;;4.90;;
68577;SDS011;61668;45.388;11.784;2023-01-25T05:47:04;11.90;;;4.10;;
68577;SDS011;61668;45.388;11.784;2023-01-25T05:49:30;14.50;;;4.40;;
68577;SDS011;61668;45.388;11.784;2023-01-25T05:51:55;13.80;;;4.90;;
68577;SDS011;61668;45.388;11.784;2023-01-25T05:54:21;12.70;;;3.60;;
68577;SDS011;61668;45.388;11.784;2023-01-25T05:59:15;12.70;;;3.80;;
68577;SDS011;61668;45.388;11.784;2023-01-25T06:01:42;12.60;;;3.90;;
68577;SDS011;61668;45.388;11.784;2023-01-25T06:04:12;12.80;;;4.00;;
68577;SDS011;61668;45.388;11.784;2023-01-25T06:06:39;12.10;;;3.20;;
68577;SDS011;61668;45.388;11.784;2023-01-25T06:09:05;12.30;;;3.40;;
68577;SDS011;61668;45.388;11.784;2023-01-25T06:11:30;11.30;;;3.20;;
68577;SDS011;61668;45.388;11.784;2023-01-25T06:13:56;11.20;;;3.60;;
68577;SDS011;61668;45.388;11.784;2023-01-25T06:16:22;11.60;;;3.70;;
68577;SDS011;61668;45.388;11.784;2023-01-25T06:18:48;11.70;;;3.70;;
68577;SDS011;61668;45.388;11.784;2023-01-25T06:21:13;11.30;;;3.60;;
68577;SDS011;61668;45.388;11.784;2023-01-25T06:23:39;14.30;;;5.20;;
68577;SDS011;61668;45.388;11.784;2023-01-25T06:26:07;12.70;;;3.40;;
68577;SDS011;61668;45.388;11.784;2023-01-25T06:28:38;12.60;;;3.90;;
68577;SDS011;61668;45.388;11.784;2023-01-25T06:31:11;12.50;;;3.70;;
68577;SDS011;61668;45.388;11.784;2023-01-25T06:33:40;12.30;;;3.50;;
68577;SDS011;61668;45.388;11.784;2023-01-25T06:36:10;13.40;;;3.80;;
68577;SDS011;61668;45.388;11.784;2023-01-25T06:38:38;11.40;;;3.90;;
68577;SDS011;61668;45.388;11.784;2023-01-25T06:41:10;12.90;;;4.20;;
68577;SDS011;61668;45.388;11.784;2023-01-25T06:43:36;12.20;;;4.40;;
68577;SDS011;61668;45.388;11.784;2023-01-25T06:46:04;14.00;;;4.50;;
68577;SDS011;61668;45.388;11.784;2023-01-25T06:48:32;11.80;;;4.00;;
68577;SDS011;61668;45.388;11.784;2023-01-25T06:51:00;13.40;;;3.90;;
68577;SDS011;61668;45.388;11.784;2023-01-25T06:53:29;12.70;;;3.90;;
68577;SDS011;61668;45.388;11.784;2023-01-25T06:56:01;13.00;;;4.20;;
68577;SDS011;61668;45.388;11.784;2023-01-25T06:58:29;15.30;;;4.10;;
68577;SDS011;61668;45.388;11.784;2023-01-25T07:01:04;11.80;;;4.30;;
68577;SDS011;61668;45.388;11.784;2023-01-25T07:03:37;12.30;;;3.10;;
68577;SDS011;61668;45.388;11.784;2023-01-25T07:06:05;12.10;;;3.80;;
68577;SDS011;61668;45.388;11.784;2023-01-25T07:08:32;11.60;;;2.60;;
68577;SDS011;61668;45.388;11.784;2023-01-25T07:11:02;12.20;;;3.20;;
68577;SDS011;61668;45.388;11.784;2023-01-25T07:13:30;10.00;;;2.90;;
68577;SDS011;61668;45.388;11.784;2023-01-25T07:16:02;9.30;;;2.80;;
68577;SDS011;61668;45.388;11.784;2023-01-25T07:18:31;10.00;;;3.00;;
68577;SDS011;61668;45.388;11.784;2023-01-25T07:21:04;10.60;;;2.80;;
68577;SDS011;61668;45.388;11.784;2023-01-25T07:23:34;10.90;;;3.20;;
68577;SDS011;61668;45.388;11.784;2023-01-25T07:26:02;10.40;;;3.40;;
68577;SDS011;61668;45.388;11.784;2023-01-25T07:28:30;11.20;;;3.10;;
68577;SDS011;61668;45.388;11.784;2023-01-25T07:31:03;12.80;;;4.30;;
68577;SDS011;61668;45.388;11.784;2023-01-25T07:33:32;11.60;;;4.30;;
68577;SDS011;61668;45.388;11.784;2023-01-25T07:36:03;12.50;;;4.90;;
68577;SDS011;61668;45.388;11.784;2023-01-25T07:38:31;13.10;;;5.00;;
68577;SDS011;61668;45.388;11.784;2023-01-25T07:40:57;14.50;;;4.90;;
68577;SDS011;61668;45.388;11.784;2023-01-25T07:43:23;14.10;;;5.00;;
68577;SDS011;61668;45.388;11.784;2023-01-25T07:45:49;13.20;;;5.00;;
68577;SDS011;61668;45.388;11.784;2023-01-25T07:48:17;14.10;;;5.70;;
68577;SDS011;61668;45.388;11.784;2023-01-25T07:50:43;15.10;;;6.80;;
68577;SDS011;61668;45.388;11.784;2023-01-25T07:53:15;15.20;;;5.80;;
68577;SDS011;61668;45.388;11.784;2023-01-25T07:55:41;17.00;;;6.70;;
68577;SDS011;61668;45.388;11.784;2023-01-25T07:58:08;15.30;;;6.10;;
68577;SDS011;61668;45.388;11.784;2023-01-25T08:00:35;20.40;;;8.20;;
68577;SDS011;61668;45.388;11.784;2023-01-25T08:03:01;17.80;;;8.40;;
68577;SDS011;61668;45.388;11.784;2023-01-25T08:05:27;17.80;;;8.90;;
68577;SDS011;61668;45.388;11.784;2023-01-25T08:07:52;18.00;;;7.40;;
68577;SDS011;61668;45.388;11.784;2023-01-25T08:10:18;19.40;;;8.00;;
68577;SDS011;61668;45.388;11.784;2023-01-25T08:12:45;18.10;;;8.60;;
68577;SDS011;61668;45.388;11.784;2023-01-25T08:15:11;17.70;;;9.00;;
68577;SDS011;61668;45.388;11.784;2023-01-25T08:17:38;16.70;;;7.70;;
68577;SDS011;61668;45.388;11.784;2023-01-25T08:20:04;16.30;;;8.00;;
68577;SDS011;61668;45.388;11.784;2023-01-25T08:22:31;15.90;;;6.90;;
68577;SDS011;61668;45.388;11.784;2023-01-25T08:24:57;19.40;;;8.40;;
68577;SDS011;61668;45.388;11.784;2023-01-25T08:27:27;17.80;;;7.70;;
68577;SDS011;61668;45.388;11.784;2023-01-25T08:29:53;18.10;;;9.10;;
68577;SDS011;61668;45.388;11.784;2023-01-25T08:32:19;17.00;;;7.70;;
68577;SDS011;61668;45.388;11.784;2023-01-25T08:34:45;14.90;;;7.10;;
68577;SDS011;61668;45.388;11.784;2023-01-25T08:37:11;17.80;;;8.40;;
68577;SDS011;61668;45.388;11.784;2023-01-25T08:39:36;15.40;;;9.00;;
68577;SDS011;61668;45.388;11.784;2023-01-25T08:42:02;17.10;;;8.70;;
68577;SDS011;61668;45.388;11.784;2023-01-25T08:44:28;16.60;;;9.00;;
68577;SDS011;61668;45.388;11.784;2023-01-25T08:46:54;16.20;;;8.30;;
68577;SDS011;61668;45.388;11.784;2023-01-25T08:49:19;15.40;;;8.20;;
68577;SDS011;61668;45.388;11.784;2023-01-25T08:51:45;17.30;;;8.70;;
68577;SDS011;61668;45.388;11.784;2023-01-25T08:54:12;16.20;;;8.10;;
68577;SDS011;61668;45.388;11.784;2023-01-25T08:56:39;17.00;;;7.80;;
68577;SDS011;61668;45.388;11.784;2023-01-25T08:59:05;14.60;;;8.00;;
68577;SDS011;61668;45.388;11.784;2023-01-25T09:01:32;15.20;;;6.80;;
68577;SDS011;61668;45.388;11.784;2023-01-25T09:03:57;14.60;;;7.00;;
68577;SDS011;61668;45.388;11.784;2023-01-25T09:06:23;14.80;;;7.60;;
68577;SDS011;61668;45.388;11.784;2023-01-25T09:08:49;16.60;;;7.90;;
68577;SDS011;61668;45.388;11.784;2023-01-25T09:11:17;12.50;;;6.30;;
68577;SDS011;61668;45.388;11.784;2023-01-25T09:13:45;15.00;;;6.40;;
68577;SDS011;61668;45.388;11.784;2023-01-25T09:16:15;14.80;;;6.60;;
68577;SDS011;61668;45.388;11.784;2023-01-25T09:18:43;14.00;;;5.70;;
68577;SDS011;61668;45.388;11.784;2023-01-25T09:21:11;11.50;;;5.30;;
68577;SDS011;61668;45.388;11.784;2023-01-25T09:23:39;12.60;;;6.10;;
68577;SDS011;61668;45.388;11.784;2023-01-25T09:26:05;14.30;;;6.50;;
68577;SDS011;61668;45.388;11.784;2023-01-25T09:28:32;12.80;;;6.10;;
68577;SDS011;61668;45.388;11.784;2023-01-25T09:31:00;13.30;;;5.90;;
68577;SDS011;61668;45.388;11.784;2023-01-25T09:33:33;12.30;;;5.60;;
68577;SDS011;61668;45.388;11.784;2023-01-25T09:36:00;12.70;;;6.50;;
68577;SDS011;61668;45.388;11.784;2023-01-25T09:38:27;14.10;;;6.60;;
68577;SDS011;61668;45.388;11.784;2023-01-25T09:41:25;13.30;;;6.00;;
68577;SDS011;61668;45.388;11.784;2023-01-25T09:46:57;12.50;;;5.00;;
68577;SDS011;61668;45.388;11.784;2023-01-25T09:54:58;10.90;;;4.60;;
68577;SDS011;61668;45.388;11.784;2023-01-25T09:57:32;11.60;;;4.10;;
68577;SDS011;61668;45.388;11.784;2023-01-25T10:00:10;10.90;;;4.80;;
68577;SDS011;61668;45.388;11.784;2023-01-25T10:03:45;11.30;;;3.80;;
68577;SDS011;61668;45.388;11.784;2023-01-25T10:05:50;12.40;;;4.90;;
68577;SDS011;61668;45.388;11.784;2023-01-25T10:08:26;12.00;;;5.50;;
68577;SDS011;61668;45.388;11.784;2023-01-25T10:11:18;20.00;;;12.10;;
68577;SDS011;61668;45.388;11.784;2023-01-25T10:13:48;14.00;;;5.20;;
68577;SDS011;61668;45.388;11.784;2023-01-25T10:22:22;14.10;;;7.70;;
68577;SDS011;61668;45.388;11.784;2023-01-25T10:25:23;11.50;;;4.40;;
68577;SDS011;61668;45.388;11.784;2023-01-25T10:30:29;11.50;;;3.80;;
68577;SDS011;61668;45.388;11.784;2023-01-25T10:33:17;13.60;;;5.60;;
68577;SDS011;61668;45.388;11.784;2023-01-25T10:35:45;12.50;;;4.40;;
68577;SDS011;61668;45.388;11.784;2023-01-25T10:40:52;12.90;;;4.50;;
68577;SDS011;61668;45.388;11.784;2023-01-25T10:43:21;13.50;;;4.90;;
68577;SDS011;61668;45.388;11.784;2023-01-25T10:45:48;11.70;;;4.20;;
68577;SDS011;61668;45.388;11.784;2023-01-25T10:48:22;11.40;;;3.80;;
68577;SDS011;61668;45.388;11.784;2023-01-25T10:50:51;12.90;;;3.80;;
68577;SDS011;61668;45.388;11.784;2023-01-25T10:53:37;12.50;;;4.50;;
68577;SDS011;61668;45.388;11.784;2023-01-25T10:58:51;11.40;;;4.00;;
68577;SDS011;61668;45.388;11.784;2023-01-25T11:01:30;12.20;;;4.40;;
68577;SDS011;61668;45.388;11.784;2023-01-25T11:03:59;11.30;;;3.30;;
68577;SDS011;61668;45.388;11.784;2023-01-25T11:06:37;13.80;;;5.00;;
68577;SDS011;61668;45.388;11.784;2023-01-25T11:14:42;11.00;;;3.60;;
68577;SDS011;61668;45.388;11.784;2023-01-25T11:17:24;10.00;;;3.10;;
68577;SDS011;61668;45.388;11.784;2023-01-25T11:20:09;12.20;;;4.10;;
68577;SDS011;61668;45.388;11.784;2023-01-25T11:22:55;11.00;;;2.90;;
68577;SDS011;61668;45.388;11.784;2023-01-25T11:25:31;12.30;;;4.10;;
68577;SDS011;61668;45.388;11.784;2023-01-25T11:30:42;13.40;;;3.90;;
68577;SDS011;61668;45.388;11.784;2023-01-25T11:33:10;12.30;;;4.30;;
68577;SDS011;61668;45.388;11.784;2023-01-25T11:35:48;11.70;;;3.80;;
68577;SDS011;61668;45.388;11.784;2023-01-25T11:38:39;11.30;;;3.90;;
68577;SDS011;61668;45.388;11.784;2023-01-25T11:55:31;13.30;;;7.80;;
68577;SDS011;61668;45.388;11.784;2023-01-25T12:16:34;13.60;;;4.60;;
68577;SDS011;61668;45.388;11.784;2023-01-25T12:19:26;13.60;;;4.60;;
68577;SDS011;61668;45.388;11.784;2023-01-25T12:22:31;13.20;;;3.90;;
68577;SDS011;61668;45.388;11.784;2023-01-25T12:25:06;13.30;;;4.30;;
68577;SDS011;61668;45.388;11.784;2023-01-25T12:28:05;15.20;;;5.10;;
68577;SDS011;61668;45.388;11.784;2023-01-25T12:31:08;13.00;;;4.30;;
68577;SDS011;61668;45.388;11.784;2023-01-25T12:36:24;15.70;;;5.10;;
68577;SDS011;61668;45.388;11.784;2023-01-25T12:39:30;14.20;;;4.70;;
68577;SDS011;61668;45.388;11.784;2023-01-25T12:42:47;14.90;;;4.30;;
68577;SDS011;61668;45.388;11.784;2023-01-25T12:45:25;14.60;;;4.20;;
68577;SDS011;61668;45.388;11.784;2023-01-25T12:47:56;13.30;;;4.30;;
68577;SDS011;61668;45.388;11.784;2023-01-25T12:50:30;20.50;;;7.00;;
68577;SDS011;61668;45.388;11.784;2023-01-25T12:53:18;14.30;;;4.90;;
68577;SDS011;61668;45.388;11.784;2023-01-25T12:55:48;12.50;;;3.90;;
68577;SDS011;61668;45.388;11.784;2023-01-25T13:01:21;14.70;;;4.60;;
68577;SDS011;61668;45.388;11.784;2023-01-25T13:04:15;13.90;;;3.80;;
68577;SDS011;61668;45.388;11.784;2023-01-25T13:07:01;12.30;;;4.60;;
68577;SDS011;61668;45.388;11.784;2023-01-25T13:12:52;11.70;;;3.90;;
68577;SDS011;61668;45.388;11.784;2023-01-25T13:15:40;13.70;;;5.40;;
68577;SDS011;61668;45.388;11.784;2023-01-25T13:20:57;13.00;;;4.20;;
68577;SDS011;61668;45.388;11.784;2023-01-25T13:28:57;16.00;;;6.00;;
68577;SDS011;61668;45.388;11.784;2023-01-25T13:34:08;16.80;;;6.20;;
68577;SDS011;61668;45.388;11.784;2023-01-25T13:36:44;14.10;;;4.70;;
68577;SDS011;61668;45.388;11.784;2023-01-25T13:44:34;12.90;;;4.30;;
68577;SDS011;61668;45.388;11.784;2023-01-25T13:47:14;12.90;;;4.50;;
68577;SDS011;61668;45.388;11.784;2023-01-25T13:49:48;12.60;;;3.80;;
68577;SDS011;61668;45.388;11.784;2023-01-25T13:52:20;11.50;;;3.60;;
68577;SDS011;61668;45.388;11.784;2023-01-25T13:54:48;12.70;;;4.50;;
68577;SDS011;61668;45.388;11.784;2023-01-25T13:57:24;12.20;;;3.80;;
68577;SDS011;61668;45.388;11.784;2023-01-25T14:00:03;9.60;;;2.70;;
68577;SDS011;61668;45.388;11.784;2023-01-25T14:02:32;9.90;;;1.50;;
68577;SDS011;61668;45.388;11.784;2023-01-25T14:04:59;10.20;;;3.40;;
68577;SDS011;61668;45.388;11.784;2023-01-25T14:07:31;9.70;;;2.40;;
68577;SDS011;61668;45.388;11.784;2023-01-25T14:10:01;8.20;;;1.50;;
68577;SDS011;61668;45.388;11.784;2023-01-25T14:12:37;10.30;;;2.70;;
68577;SDS011;61668;45.388;11.784;2023-01-25T14:18:02;9.70;;;2.20;;
68577;SDS011;61668;45.388;11.784;2023-01-25T14:20:34;10.30;;;2.60;;
68577;SDS011;61668;45.388;11.784;2023-01-25T14:23:00;11.80;;;1.90;;
68577;SDS011;61668;45.388;11.784;2023-01-25T14:25:25;9.40;;;2.00;;
68577;SDS011;61668;45.388;11.784;2023-01-25T14:30:28;8.40;;;1.70;;
68577;SDS011;61668;45.388;11.784;2023-01-25T14:33:01;7.90;;;1.70;;
68577;SDS011;61668;45.388;11.784;2023-01-25T14:35:47;8.90;;;1.90;;
68577;SDS011;61668;45.388;11.784;2023-01-25T14:38:17;9.10;;;1.80;;
68577;SDS011;61668;45.388;11.784;2023-01-25T14:40:45;10.80;;;2.20;;
68577;SDS011;61668;45.388;11.784;2023-01-25T14:43:12;8.00;;;2.10;;
68577;SDS011;61668;45.388;11.784;2023-01-25T14:45:39;9.40;;;2.20;;
68577;SDS011;61668;45.388;11.784;2023-01-25T14:48:04;10.50;;;2.90;;
68577;SDS011;61668;45.388;11.784;2023-01-25T14:50:31;8.60;;;2.80;;
68577;SDS011;61668;45.388;11.784;2023-01-25T14:53:24;12.40;;;3.70;;
68577;SDS011;61668;45.388;11.784;2023-01-25T14:55:50;13.80;;;3.90;;
68577;SDS011;61668;45.388;11.784;2023-01-25T14:58:21;13.00;;;5.60;;
68577;SDS011;61668;45.388;11.784;2023-01-25T15:00:58;13.70;;;4.60;;
68577;SDS011;61668;45.388;11.784;2023-01-25T15:03:29;19.40;;;5.90;;
68577;SDS011;61668;45.388;11.784;2023-01-25T15:05:59;16.10;;;5.10;;
68577;SDS011;61668;45.388;11.784;2023-01-25T15:08:33;13.00;;;4.30;;
68577;SDS011;61668;45.388;11.784;2023-01-25T15:11:01;12.90;;;3.10;;
68577;SDS011;61668;45.388;11.784;2023-01-25T15:13:46;10.10;;;2.40;;
68577;SDS011;61668;45.388;11.784;2023-01-25T15:16:13;15.90;;;3.20;;
68577;SDS011;61668;45.388;11.784;2023-01-25T15:18:51;13.00;;;4.40;;
68577;SDS011;61668;45.388;11.784;2023-01-25T15:21:24;11.20;;;3.30;;
68577;SDS011;61668;45.388;11.784;2023-01-25T15:23:53;10.70;;;3.40;;
68577;SDS011;61668;45.388;11.784;2023-01-25T15:26:23;9.80;;;2.10;;
68577;SDS011;61668;45.388;11.784;2023-01-25T15:28:59;8.50;;;1.60;;
68577;SDS011;61668;45.388;11.784;2023-01-25T15:31:45;8.40;;;2.20;;
68577;SDS011;61668;45.388;11.784;2023-01-25T15:34:21;9.70;;;2.20;;
68577;SDS011;61668;45.388;11.784;2023-01-25T15:36:53;10.10;;;2.70;;
68577;SDS011;61668;45.388;11.784;2023-01-25T15:39:19;16.20;;;5.10;;
68577;SDS011;61668;45.388;11.784;2023-01-25T15:41:46;18.10;;;6.00;;
68577;SDS011;61668;45.388;11.784;2023-01-25T15:44:13;14.60;;;5.10;;
68577;SDS011;61668;45.388;11.784;2023-01-25T15:46:40;13.00;;;3.90;;
68577;SDS011;61668;45.388;11.784;2023-01-25T15:49:16;15.70;;;5.30;;
68577;SDS011;61668;45.388;11.784;2023-01-25T15:51:43;13.50;;;4.50;;
68577;SDS011;61668;45.388;11.784;2023-01-25T15:54:09;13.80;;;4.40;;
68577;SDS011;61668;45.388;11.784;2023-01-25T15:56:39;13.10;;;4.70;;
68577;SDS011;61668;45.388;11.784;2023-01-25T15:59:08;12.20;;;3.60;;
68577;SDS011;61668;45.388;11.784;2023-01-25T16:01:39;11.30;;;3.50;;
68577;SDS011;61668;45.388;11.784;2023-01-25T16:04:05;18.70;;;7.10;;
68577;SDS011;61668;45.388;11.784;2023-01-25T16:06:44;13.20;;;3.50;;
68577;SDS011;61668;45.388;11.784;2023-01-25T16:09:19;14.40;;;5.50;;
68577;SDS011;61668;45.388;11.784;2023-01-25T16:11:59;15.50;;;6.40;;
68577;SDS011;61668;45.388;11.784;2023-01-25T16:14:27;14.70;;;5.00;;
68577;SDS011;61668;45.388;11.784;2023-01-25T16:16:57;12.30;;;5.00;;
68577;SDS011;61668;45.388;11.784;2023-01-25T16:19:24;11.40;;;3.50;;
68577;SDS011;61668;45.388;11.784;2023-01-25T16:21:50;11.40;;;3.40;;
68577;SDS011;61668;45.388;11.784;2023-01-25T16:24:16;11.60;;;3.70;;
68577;SDS011;61668;45.388;11.784;2023-01-25T16:26:53;13.70;;;3.30;;
68577;SDS011;61668;45.388;11.784;2023-01-25T16:29:20;11.40;;;4.10;;
68577;SDS011;61668;45.388;11.784;2023-01-25T16:31:50;10.60;;;2.90;;
68577;SDS011;61668;45.388;11.784;2023-01-25T16:34:17;11.70;;;3.50;;
68577;SDS011;61668;45.388;11.784;2023-01-25T16:36:44;9.20;;;2.60;;
68577;SDS011;61668;45.388;11.784;2023-01-25T16:39:20;14.30;;;3.90;;
68577;SDS011;61668;45.388;11.784;2023-01-25T16:41:48;13.60;;;4.80;;
68577;SDS011;61668;45.388;11.784;2023-01-25T16:44:15;9.50;;;3.40;;